sensor_id;sensor_type;location;lat;lon;timestamp;temperature;humidity
21261;DHT22;10788;47.930;9.766;2023-04-24T00:01:27;9.20;99.90
21261;DHT22;10788;47.930;9.766;2023-04-24T00:03:55;9.10;99.90
21261;DHT22;10788;47.930;9.766;2023-04-24T00:06:21;9.20;99.90
21261;DHT22;10788;47.930;9.766;2023-04-24T00:08:49;9.20;99.90
21261;DHT22;10788;47.930;9.766;2023-04-24T00:11:14;9.20;99.90
21261;DHT22;10788;47.930;9.766;2023-04-24T00:13:40;9.30;99.90
21261;DHT22;10788;47.930;9.766;2023-04-24T00:16:05;9.20;99.90
21261;DHT22;10788;47.930;9.766;2023-04-24T00:18:31;9.20;99.90
21261;DHT22;10788;47.930;9.766;2023-04-24T00:20:57;9.00;99.90
21261;DHT22;10788;47.930;9.766;2023-04-24T00:23:22;9.20;99.90
21261;DHT22;10788;47.930;9.766;2023-04-24T00:25:48;9.10;99.90
21261;DHT22;10788;47.930;9.766;2023-04-24T00:28:13;9.30;99.90
21261;DHT22;10788;47.930;9.766;2023-04-24T00:30:40;9.10;99.90
21261;DHT22;10788;47.930;9.766;2023-04-24T00:33:05;9.10;99.90
21261;DHT22;10788;47.930;9.766;2023-04-24T00:35:31;9.10;99.90
21261;DHT22;10788;47.930;9.766;2023-04-24T00:37:56;9.10;99.90
21261;DHT22;10788;47.930;9.766;2023-04-24T00:40:22;9.20;99.90
21261;DHT22;10788;47.930;9.766;2023-04-24T00:42:48;9.10;99.90
21261;DHT22;10788;47.930;9.766;2023-04-24T00:45:14;9.10;99.90
21261;DHT22;10788;47.930;9.766;2023-04-24T00:47:41;9.10;99.90
21261;DHT22;10788;47.930;9.766;2023-04-24T00:50:07;9.00;99.90
21261;DHT22;10788;47.930;9.766;2023-04-24T00:52:33;9.00;99.90
21261;DHT22;10788;47.930;9.766;2023-04-24T00:54:59;9.10;99.90
21261;DHT22;10788;47.930;9.766;2023-04-24T00:57:25;9.00;99.90
21261;DHT22;10788;47.930;9.766;2023-04-24T00:59:52;9.00;99.90
21261;DHT22;10788;47.930;9.766;2023-04-24T01:02:18;9.00;99.90
21261;DHT22;10788;47.930;9.766;2023-04-24T01:04:45;9.00;99.90
21261;DHT22;10788;47.930;9.766;2023-04-24T01:07:10;9.00;99.90
21261;DHT22;10788;47.930;9.766;2023-04-24T01:09:43;9.00;99.90
21261;DHT22;10788;47.930;9.766;2023-04-24T01:12:12;9.00;99.90
21261;DHT22;10788;47.930;9.766;2023-04-24T01:14:38;9.00;99.90
21261;DHT22;10788;47.930;9.766;2023-04-24T01:17:03;9.00;99.90
21261;DHT22;10788;47.930;9.766;2023-04-24T01:19:29;9.00;99.90
21261;DHT22;10788;47.930;9.766;2023-04-24T01:21:58;9.00;99.90
21261;DHT22;10788;47.930;9.766;2023-04-24T01:24:24;9.00;99.90
21261;DHT22;10788;47.930;9.766;2023-04-24T01:26:50;9.00;99.90
21261;DHT22;10788;47.930;9.766;2023-04-24T01:29:16;8.90;99.90
21261;DHT22;10788;47.930;9.766;2023-04-24T01:31:41;8.90;99.90
21261;DHT22;10788;47.930;9.766;2023-04-24T01:34:07;8.90;99.90
21261;DHT22;10788;47.930;9.766;2023-04-24T01:36:34;9.00;99.90
21261;DHT22;10788;47.930;9.766;2023-04-24T01:39:01;8.90;99.90
21261;DHT22;10788;47.930;9.766;2023-04-24T01:41:28;8.80;99.90
21261;DHT22;10788;47.930;9.766;2023-04-24T01:43:54;8.90;99.90
21261;DHT22;10788;47.930;9.766;2023-04-24T01:46:20;8.90;99.90
21261;DHT22;10788;47.930;9.766;2023-04-24T01:48:46;8.80;99.90
21261;DHT22;10788;47.930;9.766;2023-04-24T01:51:11;8.80;99.90
21261;DHT22;10788;47.930;9.766;2023-04-24T01:53:37;8.70;99.90
21261;DHT22;10788;47.930;9.766;2023-04-24T01:56:03;8.80;99.90
21261;DHT22;10788;47.930;9.766;2023-04-24T01:58:29;8.80;99.90
21261;DHT22;10788;47.930;9.766;2023-04-24T02:00:56;8.80;99.90
21261;DHT22;10788;47.930;9.766;2023-04-24T02:03:24;8.70;99.90
21261;DHT22;10788;47.930;9.766;2023-04-24T02:05:50;8.70;99.90
21261;DHT22;10788;47.930;9.766;2023-04-24T02:08:16;8.70;99.90
21261;DHT22;10788;47.930;9.766;2023-04-24T02:10:41;8.70;99.90
21261;DHT22;10788;47.930;9.766;2023-04-24T02:13:07;8.80;99.90
21261;DHT22;10788;47.930;9.766;2023-04-24T02:15:32;8.80;99.90
21261;DHT22;10788;47.930;9.766;2023-04-24T02:17:58;8.80;99.90
21261;DHT22;10788;47.930;9.766;2023-04-24T02:20:24;8.80;99.90
21261;DHT22;10788;47.930;9.766;2023-04-24T02:22:49;8.80;99.90
21261;DHT22;10788;47.930;9.766;2023-04-24T02:25:16;8.80;99.90
21261;DHT22;10788;47.930;9.766;2023-04-24T02:27:41;8.80;99.90
21261;DHT22;10788;47.930;9.766;2023-04-24T02:30:07;8.80;99.90
21261;DHT22;10788;47.930;9.766;2023-04-24T02:32:33;8.70;99.90
21261;DHT22;10788;47.930;9.766;2023-04-24T02:34:59;8.70;99.90
21261;DHT22;10788;47.930;9.766;2023-04-24T02:37:25;8.80;99.90
21261;DHT22;10788;47.930;9.766;2023-04-24T02:39:50;8.80;99.90
21261;DHT22;10788;47.930;9.766;2023-04-24T02:42:16;8.70;99.90
21261;DHT22;10788;47.930;9.766;2023-04-24T02:44:41;8.70;99.90
21261;DHT22;10788;47.930;9.766;2023-04-24T02:47:07;8.70;99.90
21261;DHT22;10788;47.930;9.766;2023-04-24T02:49:33;8.70;99.90
21261;DHT22;10788;47.930;9.766;2023-04-24T02:51:59;8.70;99.90
21261;DHT22;10788;47.930;9.766;2023-04-24T02:54:25;8.70;99.90
21261;DHT22;10788;47.930;9.766;2023-04-24T02:56:50;8.70;99.90
21261;DHT22;10788;47.930;9.766;2023-04-24T02:59:16;8.70;99.90
21261;DHT22;10788;47.930;9.766;2023-04-24T03:01:41;8.70;99.90
21261;DHT22;10788;47.930;9.766;2023-04-24T03:04:07;8.70;99.90
21261;DHT22;10788;47.930;9.766;2023-04-24T03:06:33;8.90;99.90
21261;DHT22;10788;47.930;9.766;2023-04-24T03:09:00;8.70;99.90
21261;DHT22;10788;47.930;9.766;2023-04-24T03:11:26;8.70;99.90
21261;DHT22;10788;47.930;9.766;2023-04-24T03:13:52;8.60;99.90
21261;DHT22;10788;47.930;9.766;2023-04-24T03:16:17;8.60;99.90
21261;DHT22;10788;47.930;9.766;2023-04-24T03:18:43;8.60;99.90
21261;DHT22;10788;47.930;9.766;2023-04-24T03:21:08;8.80;99.90
21261;DHT22;10788;47.930;9.766;2023-04-24T03:23:34;8.60;99.90
21261;DHT22;10788;47.930;9.766;2023-04-24T03:26:00;8.70;99.90
21261;DHT22;10788;47.930;9.766;2023-04-24T03:28:25;8.70;99.90
21261;DHT22;10788;47.930;9.766;2023-04-24T03:30:51;8.70;99.90
21261;DHT22;10788;47.930;9.766;2023-04-24T03:33:17;8.70;99.90
21261;DHT22;10788;47.930;9.766;2023-04-24T03:35:43;8.70;99.90
21261;DHT22;10788;47.930;9.766;2023-04-24T03:38:08;8.60;99.90
21261;DHT22;10788;47.930;9.766;2023-04-24T03:40:34;8.50;99.90
21261;DHT22;10788;47.930;9.766;2023-04-24T03:42:59;8.60;99.90
21261;DHT22;10788;47.930;9.766;2023-04-24T03:45:25;8.60;99.90
21261;DHT22;10788;47.930;9.766;2023-04-24T03:47:51;8.60;99.90
21261;DHT22;10788;47.930;9.766;2023-04-24T03:50:16;8.50;99.90
21261;DHT22;10788;47.930;9.766;2023-04-24T03:52:42;8.50;99.90
21261;DHT22;10788;47.930;9.766;2023-04-24T03:55:08;8.50;99.90
21261;DHT22;10788;47.930;9.766;2023-04-24T03:57:33;8.50;99.90
21261;DHT22;10788;47.930;9.766;2023-04-24T03:59:59;8.50;99.90
21261;DHT22;10788;47.930;9.766;2023-04-24T04:02:25;8.50;99.90
21261;DHT22;10788;47.930;9.766;2023-04-24T04:04:50;8.60;99.90
21261;DHT22;10788;47.930;9.766;2023-04-24T04:07:16;8.50;99.90
21261;DHT22;10788;47.930;9.766;2023-04-24T04:09:42;8.40;99.90
21261;DHT22;10788;47.930;9.766;2023-04-24T04:12:07;8.50;99.90
21261;DHT22;10788;47.930;9.766;2023-04-24T04:14:33;8.40;99.90
21261;DHT22;10788;47.930;9.766;2023-04-24T04:16:58;8.50;99.90
21261;DHT22;10788;47.930;9.766;2023-04-24T04:19:24;8.40;99.90
21261;DHT22;10788;47.930;9.766;2023-04-24T04:21:50;8.40;99.90
21261;DHT22;10788;47.930;9.766;2023-04-24T04:24:21;8.40;99.90
21261;DHT22;10788;47.930;9.766;2023-04-24T04:26:48;8.40;99.90
21261;DHT22;10788;47.930;9.766;2023-04-24T04:29:17;8.40;99.90
21261;DHT22;10788;47.930;9.766;2023-04-24T04:31:44;8.40;99.90
21261;DHT22;10788;47.930;9.766;2023-04-24T04:34:10;8.40;99.90
21261;DHT22;10788;47.930;9.766;2023-04-24T04:36:37;8.30;99.90
21261;DHT22;10788;47.930;9.766;2023-04-24T04:39:05;8.40;99.90
21261;DHT22;10788;47.930;9.766;2023-04-24T04:41:31;8.20;99.90
21261;DHT22;10788;47.930;9.766;2023-04-24T04:43:57;8.20;99.90
21261;DHT22;10788;47.930;9.766;2023-04-24T04:46:26;8.30;99.90
21261;DHT22;10788;47.930;9.766;2023-04-24T04:48:52;8.30;99.90
21261;DHT22;10788;47.930;9.766;2023-04-24T04:51:18;8.30;99.90
21261;DHT22;10788;47.930;9.766;2023-04-24T04:53:43;8.40;99.90
21261;DHT22;10788;47.930;9.766;2023-04-24T04:56:10;8.40;99.90
21261;DHT22;10788;47.930;9.766;2023-04-24T04:58:35;8.50;99.90
21261;DHT22;10788;47.930;9.766;2023-04-24T05:01:01;8.30;99.90
21261;DHT22;10788;47.930;9.766;2023-04-24T05:03:27;8.30;99.90
21261;DHT22;10788;47.930;9.766;2023-04-24T05:05:53;8.30;99.90
21261;DHT22;10788;47.930;9.766;2023-04-24T05:08:18;8.30;99.90
21261;DHT22;10788;47.930;9.766;2023-04-24T05:10:44;8.40;99.90
21261;DHT22;10788;47.930;9.766;2023-04-24T05:13:09;8.30;99.90
21261;DHT22;10788;47.930;9.766;2023-04-24T05:15:35;8.40;99.90
21261;DHT22;10788;47.930;9.766;2023-04-24T05:18:01;8.30;99.90
21261;DHT22;10788;47.930;9.766;2023-04-24T05:20:26;8.40;99.90
21261;DHT22;10788;47.930;9.766;2023-04-24T05:22:52;8.30;99.90
21261;DHT22;10788;47.930;9.766;2023-04-24T05:25:18;8.30;99.90
21261;DHT22;10788;47.930;9.766;2023-04-24T05:27:43;8.30;99.90
21261;DHT22;10788;47.930;9.766;2023-04-24T05:30:10;8.50;99.90
21261;DHT22;10788;47.930;9.766;2023-04-24T05:32:35;8.40;99.90
21261;DHT22;10788;47.930;9.766;2023-04-24T05:35:01;8.40;99.90
21261;DHT22;10788;47.930;9.766;2023-04-24T05:37:27;8.40;99.90
21261;DHT22;10788;47.930;9.766;2023-04-24T05:39:52;8.30;99.90
21261;DHT22;10788;47.930;9.766;2023-04-24T05:42:18;8.40;99.90
21261;DHT22;10788;47.930;9.766;2023-04-24T05:44:44;8.40;99.90
21261;DHT22;10788;47.930;9.766;2023-04-24T05:47:09;8.40;99.90
21261;DHT22;10788;47.930;9.766;2023-04-24T05:49:35;8.40;99.90
21261;DHT22;10788;47.930;9.766;2023-04-24T05:52:00;8.40;99.90
21261;DHT22;10788;47.930;9.766;2023-04-24T05:54:26;8.40;99.90
21261;DHT22;10788;47.930;9.766;2023-04-24T05:56:52;8.40;99.90
21261;DHT22;10788;47.930;9.766;2023-04-24T05:59:19;8.50;99.90
21261;DHT22;10788;47.930;9.766;2023-04-24T06:01:45;8.40;99.90
21261;DHT22;10788;47.930;9.766;2023-04-24T06:04:12;8.40;99.90
21261;DHT22;10788;47.930;9.766;2023-04-24T06:06:38;8.40;99.90
21261;DHT22;10788;47.930;9.766;2023-04-24T06:09:04;8.40;99.90
21261;DHT22;10788;47.930;9.766;2023-04-24T06:11:30;8.50;99.90
21261;DHT22;10788;47.930;9.766;2023-04-24T06:13:56;8.40;99.90
21261;DHT22;10788;47.930;9.766;2023-04-24T06:16:21;8.40;99.90
21261;DHT22;10788;47.930;9.766;2023-04-24T06:18:47;8.30;99.90
21261;DHT22;10788;47.930;9.766;2023-04-24T06:21:12;8.40;99.90
21261;DHT22;10788;47.930;9.766;2023-04-24T06:23:38;8.30;99.90
21261;DHT22;10788;47.930;9.766;2023-04-24T06:26:04;8.20;99.90
21261;DHT22;10788;47.930;9.766;2023-04-24T06:28:30;8.20;99.90
21261;DHT22;10788;47.930;9.766;2023-04-24T06:30:55;8.20;99.90
21261;DHT22;10788;47.930;9.766;2023-04-24T06:33:21;8.10;99.90
21261;DHT22;10788;47.930;9.766;2023-04-24T06:35:46;8.10;99.90
21261;DHT22;10788;47.930;9.766;2023-04-24T06:38:12;8.10;99.90
21261;DHT22;10788;47.930;9.766;2023-04-24T06:40:38;8.10;99.90
21261;DHT22;10788;47.930;9.766;2023-04-24T06:43:03;8.10;99.90
21261;DHT22;10788;47.930;9.766;2023-04-24T06:45:29;8.20;99.90
21261;DHT22;10788;47.930;9.766;2023-04-24T06:47:55;8.20;99.90
21261;DHT22;10788;47.930;9.766;2023-04-24T06:50:21;8.20;99.90
21261;DHT22;10788;47.930;9.766;2023-04-24T06:52:47;8.40;99.90
21261;DHT22;10788;47.930;9.766;2023-04-24T06:55:12;8.40;99.90
21261;DHT22;10788;47.930;9.766;2023-04-24T06:57:40;8.40;99.90
21261;DHT22;10788;47.930;9.766;2023-04-24T07:00:06;8.50;99.90
21261;DHT22;10788;47.930;9.766;2023-04-24T07:02:32;8.50;99.90
21261;DHT22;10788;47.930;9.766;2023-04-24T07:04:58;8.50;99.90
21261;DHT22;10788;47.930;9.766;2023-04-24T07:07:23;8.60;99.90
21261;DHT22;10788;47.930;9.766;2023-04-24T07:09:49;8.60;99.90
21261;DHT22;10788;47.930;9.766;2023-04-24T07:12:16;8.70;99.90
21261;DHT22;10788;47.930;9.766;2023-04-24T07:14:42;8.70;99.90
21261;DHT22;10788;47.930;9.766;2023-04-24T07:17:08;8.70;99.90
21261;DHT22;10788;47.930;9.766;2023-04-24T07:19:34;8.80;99.90
21261;DHT22;10788;47.930;9.766;2023-04-24T07:22:01;8.80;99.90
21261;DHT22;10788;47.930;9.766;2023-04-24T07:24:26;8.80;99.90
21261;DHT22;10788;47.930;9.766;2023-04-24T07:26:53;8.80;99.90
21261;DHT22;10788;47.930;9.766;2023-04-24T07:29:19;8.80;99.90
21261;DHT22;10788;47.930;9.766;2023-04-24T07:31:45;8.90;99.90
21261;DHT22;10788;47.930;9.766;2023-04-24T07:34:10;8.90;99.90
21261;DHT22;10788;47.930;9.766;2023-04-24T07:36:36;9.00;99.90
21261;DHT22;10788;47.930;9.766;2023-04-24T07:39:04;9.10;99.90
21261;DHT22;10788;47.930;9.766;2023-04-24T07:41:30;9.20;99.90
21261;DHT22;10788;47.930;9.766;2023-04-24T07:43:55;9.20;99.90
21261;DHT22;10788;47.930;9.766;2023-04-24T07:46:21;9.50;99.90
21261;DHT22;10788;47.930;9.766;2023-04-24T07:48:47;9.60;99.90
21261;DHT22;10788;47.930;9.766;2023-04-24T07:51:15;9.70;99.90
21261;DHT22;10788;47.930;9.766;2023-04-24T07:53:41;9.90;99.90
21261;DHT22;10788;47.930;9.766;2023-04-24T07:56:07;10.00;99.90
21261;DHT22;10788;47.930;9.766;2023-04-24T07:58:32;10.20;99.90
21261;DHT22;10788;47.930;9.766;2023-04-24T08:00:58;10.20;99.90
21261;DHT22;10788;47.930;9.766;2023-04-24T08:03:24;10.50;99.90
21261;DHT22;10788;47.930;9.766;2023-04-24T08:05:50;10.60;99.90
21261;DHT22;10788;47.930;9.766;2023-04-24T08:08:16;10.70;99.90
21261;DHT22;10788;47.930;9.766;2023-04-24T08:10:42;11.00;99.90
21261;DHT22;10788;47.930;9.766;2023-04-24T08:13:08;10.90;99.90
21261;DHT22;10788;47.930;9.766;2023-04-24T08:15:33;11.10;99.90
21261;DHT22;10788;47.930;9.766;2023-04-24T08:17:59;11.20;99.90
21261;DHT22;10788;47.930;9.766;2023-04-24T08:20:25;11.00;99.90
21261;DHT22;10788;47.930;9.766;2023-04-24T08:22:50;11.00;99.90
21261;DHT22;10788;47.930;9.766;2023-04-24T08:25:16;10.90;99.90
21261;DHT22;10788;47.930;9.766;2023-04-24T08:27:42;11.00;99.90
21261;DHT22;10788;47.930;9.766;2023-04-24T08:30:09;10.90;99.90
21261;DHT22;10788;47.930;9.766;2023-04-24T08:32:35;10.70;99.90
21261;DHT22;10788;47.930;9.766;2023-04-24T08:35:01;10.80;99.90
21261;DHT22;10788;47.930;9.766;2023-04-24T08:37:27;11.10;99.90
21261;DHT22;10788;47.930;9.766;2023-04-24T08:39:53;11.40;99.90
21261;DHT22;10788;47.930;9.766;2023-04-24T08:42:19;11.60;99.90
21261;DHT22;10788;47.930;9.766;2023-04-24T08:44:46;11.70;99.90
21261;DHT22;10788;47.930;9.766;2023-04-24T08:47:15;11.90;99.90
21261;DHT22;10788;47.930;9.766;2023-04-24T08:49:40;12.10;99.90
21261;DHT22;10788;47.930;9.766;2023-04-24T08:52:06;12.20;99.90
21261;DHT22;10788;47.930;9.766;2023-04-24T08:54:34;12.20;99.90
21261;DHT22;10788;47.930;9.766;2023-04-24T08:57:01;11.80;99.90
21261;DHT22;10788;47.930;9.766;2023-04-24T08:59:29;11.60;99.90
21261;DHT22;10788;47.930;9.766;2023-04-24T09:01:56;11.60;99.90
21261;DHT22;10788;47.930;9.766;2023-04-24T09:04:22;11.50;99.90
21261;DHT22;10788;47.930;9.766;2023-04-24T09:06:51;11.60;99.90
21261;DHT22;10788;47.930;9.766;2023-04-24T09:09:17;11.30;99.90
21261;DHT22;10788;47.930;9.766;2023-04-24T09:11:46;11.30;99.90
21261;DHT22;10788;47.930;9.766;2023-04-24T09:14:13;11.20;99.90
21261;DHT22;10788;47.930;9.766;2023-04-24T09:16:39;11.10;99.90
21261;DHT22;10788;47.930;9.766;2023-04-24T09:19:05;11.10;99.90
21261;DHT22;10788;47.930;9.766;2023-04-24T09:21:34;11.40;99.90
21261;DHT22;10788;47.930;9.766;2023-04-24T09:24:05;11.70;99.90
21261;DHT22;10788;47.930;9.766;2023-04-24T09:26:31;12.00;99.90
21261;DHT22;10788;47.930;9.766;2023-04-24T09:28:58;12.00;99.90
21261;DHT22;10788;47.930;9.766;2023-04-24T09:31:27;11.90;99.90
21261;DHT22;10788;47.930;9.766;2023-04-24T09:39:02;12.40;99.90
21261;DHT22;10788;47.930;9.766;2023-04-24T09:41:29;12.60;99.90
21261;DHT22;10788;47.930;9.766;2023-04-24T09:43:56;12.60;99.90
21261;DHT22;10788;47.930;9.766;2023-04-24T09:46:29;12.50;99.90
21261;DHT22;10788;47.930;9.766;2023-04-24T09:48:56;12.20;99.90
21261;DHT22;10788;47.930;9.766;2023-04-24T09:51:34;12.10;99.90
21261;DHT22;10788;47.930;9.766;2023-04-24T09:54:01;11.90;99.90
21261;DHT22;10788;47.930;9.766;2023-04-24T09:56:26;11.90;99.90
21261;DHT22;10788;47.930;9.766;2023-04-24T09:58:52;11.90;99.90
21261;DHT22;10788;47.930;9.766;2023-04-24T10:01:30;11.90;99.90
21261;DHT22;10788;47.930;9.766;2023-04-24T10:03:56;11.80;99.90
21261;DHT22;10788;47.930;9.766;2023-04-24T10:06:21;11.70;99.90
21261;DHT22;10788;47.930;9.766;2023-04-24T10:08:48;11.60;99.90
21261;DHT22;10788;47.930;9.766;2023-04-24T10:11:16;11.60;99.90
21261;DHT22;10788;47.930;9.766;2023-04-24T10:13:42;11.40;99.90
21261;DHT22;10788;47.930;9.766;2023-04-24T10:16:08;11.40;99.90
21261;DHT22;10788;47.930;9.766;2023-04-24T10:18:35;11.50;99.90
21261;DHT22;10788;47.930;9.766;2023-04-24T10:21:01;11.60;99.90
21261;DHT22;10788;47.930;9.766;2023-04-24T10:23:27;11.50;99.90
21261;DHT22;10788;47.930;9.766;2023-04-24T10:25:56;11.60;99.90
21261;DHT22;10788;47.930;9.766;2023-04-24T10:28:22;11.50;99.90
21261;DHT22;10788;47.930;9.766;2023-04-24T10:30:49;11.60;99.90
21261;DHT22;10788;47.930;9.766;2023-04-24T10:33:16;11.80;99.90
21261;DHT22;10788;47.930;9.766;2023-04-24T10:35:45;12.40;99.90
21261;DHT22;10788;47.930;9.766;2023-04-24T10:38:13;12.70;99.90
21261;DHT22;10788;47.930;9.766;2023-04-24T10:40:39;12.90;99.90
21261;DHT22;10788;47.930;9.766;2023-04-24T10:43:07;13.10;99.90
21261;DHT22;10788;47.930;9.766;2023-04-24T10:45:37;13.20;99.90
21261;DHT22;10788;47.930;9.766;2023-04-24T10:48:07;13.10;99.90
21261;DHT22;10788;47.930;9.766;2023-04-24T10:50:47;13.10;99.90
21261;DHT22;10788;47.930;9.766;2023-04-24T10:53:18;13.30;99.90
21261;DHT22;10788;47.930;9.766;2023-04-24T10:55:48;13.20;99.90
21261;DHT22;10788;47.930;9.766;2023-04-24T10:58:15;13.50;99.90
21261;DHT22;10788;47.930;9.766;2023-04-24T11:00:43;13.60;99.90
21261;DHT22;10788;47.930;9.766;2023-04-24T11:03:32;13.50;99.90
21261;DHT22;10788;47.930;9.766;2023-04-24T11:06:03;13.10;99.90
21261;DHT22;10788;47.930;9.766;2023-04-24T11:08:31;13.10;99.90
21261;DHT22;10788;47.930;9.766;2023-04-24T11:11:02;12.80;99.90
21261;DHT22;10788;47.930;9.766;2023-04-24T11:16:26;12.50;99.90
21261;DHT22;10788;47.930;9.766;2023-04-24T11:19:26;12.60;99.90
21261;DHT22;10788;47.930;9.766;2023-04-24T11:22:01;12.70;99.90
21261;DHT22;10788;47.930;9.766;2023-04-24T11:24:51;12.90;99.90
21261;DHT22;10788;47.930;9.766;2023-04-24T11:27:20;13.10;99.90
21261;DHT22;10788;47.930;9.766;2023-04-24T11:35:14;13.30;99.90
21261;DHT22;10788;47.930;9.766;2023-04-24T11:37:42;13.10;99.90
21261;DHT22;10788;47.930;9.766;2023-04-24T11:40:10;13.00;99.90
21261;DHT22;10788;47.930;9.766;2023-04-24T11:42:37;12.70;99.90
21261;DHT22;10788;47.930;9.766;2023-04-24T11:47:33;12.50;99.90
21261;DHT22;10788;47.930;9.766;2023-04-24T11:50:00;12.50;99.90
21261;DHT22;10788;47.930;9.766;2023-04-24T11:52:30;12.40;99.90
21261;DHT22;10788;47.930;9.766;2023-04-24T11:54:56;12.40;99.90
21261;DHT22;10788;47.930;9.766;2023-04-24T11:57:22;12.40;99.90
21261;DHT22;10788;47.930;9.766;2023-04-24T11:59:49;12.50;99.90
21261;DHT22;10788;47.930;9.766;2023-04-24T12:04:48;13.10;99.90
21261;DHT22;10788;47.930;9.766;2023-04-24T12:07:13;13.10;99.90
21261;DHT22;10788;47.930;9.766;2023-04-24T12:09:47;13.10;99.90
21261;DHT22;10788;47.930;9.766;2023-04-24T12:12:14;13.00;99.90
21261;DHT22;10788;47.930;9.766;2023-04-24T12:14:55;13.00;99.90
21261;DHT22;10788;47.930;9.766;2023-04-24T12:17:31;13.00;99.90
21261;DHT22;10788;47.930;9.766;2023-04-24T12:20:02;13.20;99.90
21261;DHT22;10788;47.930;9.766;2023-04-24T12:25:10;13.40;99.90
21261;DHT22;10788;47.930;9.766;2023-04-24T12:27:36;13.40;99.90
21261;DHT22;10788;47.930;9.766;2023-04-24T12:30:04;13.30;99.90
21261;DHT22;10788;47.930;9.766;2023-04-24T12:32:30;13.10;99.90
21261;DHT22;10788;47.930;9.766;2023-04-24T12:34:57;12.80;99.90
21261;DHT22;10788;47.930;9.766;2023-04-24T12:37:25;12.80;99.90
21261;DHT22;10788;47.930;9.766;2023-04-24T12:42:30;12.70;99.90
21261;DHT22;10788;47.930;9.766;2023-04-24T12:45:02;12.90;99.90
21261;DHT22;10788;47.930;9.766;2023-04-24T12:47:29;13.00;99.90
21261;DHT22;10788;47.930;9.766;2023-04-24T12:49:55;13.00;99.90
21261;DHT22;10788;47.930;9.766;2023-04-24T12:52:24;13.20;99.90
21261;DHT22;10788;47.930;9.766;2023-04-24T12:54:53;13.30;99.90
21261;DHT22;10788;47.930;9.766;2023-04-24T12:57:19;13.40;99.90
21261;DHT22;10788;47.930;9.766;2023-04-24T12:59:44;13.20;99.90
21261;DHT22;10788;47.930;9.766;2023-04-24T13:02:11;13.20;99.90
21261;DHT22;10788;47.930;9.766;2023-04-24T13:04:37;13.20;99.90
21261;DHT22;10788;47.930;9.766;2023-04-24T13:07:02;13.00;99.90
21261;DHT22;10788;47.930;9.766;2023-04-24T13:09:28;12.90;99.90
21261;DHT22;10788;47.930;9.766;2023-04-24T13:11:55;12.80;99.90
21261;DHT22;10788;47.930;9.766;2023-04-24T13:14:22;12.70;99.90
21261;DHT22;10788;47.930;9.766;2023-04-24T13:16:48;12.50;99.90
21261;DHT22;10788;47.930;9.766;2023-04-24T13:19:13;12.60;99.90
21261;DHT22;10788;47.930;9.766;2023-04-24T13:21:39;12.70;99.90
21261;DHT22;10788;47.930;9.766;2023-04-24T13:24:05;12.70;99.90
21261;DHT22;10788;47.930;9.766;2023-04-24T13:26:33;12.70;99.90
21261;DHT22;10788;47.930;9.766;2023-04-24T13:28:58;12.70;99.90
21261;DHT22;10788;47.930;9.766;2023-04-24T13:31:24;12.80;99.90
21261;DHT22;10788;47.930;9.766;2023-04-24T13:33:49;12.70;99.90
21261;DHT22;10788;47.930;9.766;2023-04-24T13:36:15;12.90;99.90
21261;DHT22;10788;47.930;9.766;2023-04-24T13:38:43;12.90;99.90
21261;DHT22;10788;47.930;9.766;2023-04-24T13:41:10;12.90;99.90
21261;DHT22;10788;47.930;9.766;2023-04-24T13:43:36;12.80;99.90
21261;DHT22;10788;47.930;9.766;2023-04-24T13:46:01;13.00;99.90
21261;DHT22;10788;47.930;9.766;2023-04-24T13:48:29;13.10;99.90
21261;DHT22;10788;47.930;9.766;2023-04-24T13:50:55;13.20;99.90
21261;DHT22;10788;47.930;9.766;2023-04-24T13:53:21;13.20;99.90
21261;DHT22;10788;47.930;9.766;2023-04-24T13:55:47;13.10;99.90
21261;DHT22;10788;47.930;9.766;2023-04-24T13:58:13;13.00;99.90
21261;DHT22;10788;47.930;9.766;2023-04-24T14:00:39;13.10;99.90
21261;DHT22;10788;47.930;9.766;2023-04-24T14:03:04;13.30;99.90
21261;DHT22;10788;47.930;9.766;2023-04-24T14:05:30;13.40;99.90
21261;DHT22;10788;47.930;9.766;2023-04-24T14:07:55;13.50;99.90
21261;DHT22;10788;47.930;9.766;2023-04-24T14:10:21;13.50;99.90
21261;DHT22;10788;47.930;9.766;2023-04-24T14:12:47;13.30;99.90
21261;DHT22;10788;47.930;9.766;2023-04-24T14:15:12;13.20;99.90
21261;DHT22;10788;47.930;9.766;2023-04-24T14:17:39;13.00;99.90
21261;DHT22;10788;47.930;9.766;2023-04-24T14:20:05;12.90;99.90
21261;DHT22;10788;47.930;9.766;2023-04-24T14:22:32;12.90;99.90
21261;DHT22;10788;47.930;9.766;2023-04-24T14:24:58;12.90;99.90
21261;DHT22;10788;47.930;9.766;2023-04-24T14:27:24;12.70;99.90
21261;DHT22;10788;47.930;9.766;2023-04-24T14:29:50;12.70;99.90
21261;DHT22;10788;47.930;9.766;2023-04-24T14:32:16;12.50;99.90
21261;DHT22;10788;47.930;9.766;2023-04-24T14:34:41;12.50;99.90
21261;DHT22;10788;47.930;9.766;2023-04-24T14:37:07;12.40;99.90
21261;DHT22;10788;47.930;9.766;2023-04-24T14:39:33;12.40;99.90
21261;DHT22;10788;47.930;9.766;2023-04-24T14:41:58;12.40;99.90
21261;DHT22;10788;47.930;9.766;2023-04-24T14:44:24;12.60;99.90
21261;DHT22;10788;47.930;9.766;2023-04-24T14:46:50;12.70;99.90
21261;DHT22;10788;47.930;9.766;2023-04-24T14:49:15;12.80;99.90
21261;DHT22;10788;47.930;9.766;2023-04-24T14:51:41;12.70;99.90
21261;DHT22;10788;47.930;9.766;2023-04-24T14:54:08;12.90;99.90
21261;DHT22;10788;47.930;9.766;2023-04-24T14:56:33;12.90;99.90
21261;DHT22;10788;47.930;9.766;2023-04-24T14:58:59;12.80;99.90
21261;DHT22;10788;47.930;9.766;2023-04-24T15:01:25;12.80;99.90
21261;DHT22;10788;47.930;9.766;2023-04-24T15:03:50;12.70;99.90
21261;DHT22;10788;47.930;9.766;2023-04-24T15:06:16;12.70;99.90
21261;DHT22;10788;47.930;9.766;2023-04-24T15:08:42;12.70;99.90
21261;DHT22;10788;47.930;9.766;2023-04-24T15:11:08;12.70;99.90
21261;DHT22;10788;47.930;9.766;2023-04-24T15:13:34;12.60;99.90
21261;DHT22;10788;47.930;9.766;2023-04-24T15:16:00;12.60;99.90
21261;DHT22;10788;47.930;9.766;2023-04-24T15:18:26;12.50;99.90
21261;DHT22;10788;47.930;9.766;2023-04-24T15:20:53;12.60;99.90
21261;DHT22;10788;47.930;9.766;2023-04-24T15:23:18;12.60;99.90
21261;DHT22;10788;47.930;9.766;2023-04-24T15:25:44;12.70;99.90
21261;DHT22;10788;47.930;9.766;2023-04-24T15:28:10;12.60;99.90
21261;DHT22;10788;47.930;9.766;2023-04-24T15:30:35;12.50;99.90
21261;DHT22;10788;47.930;9.766;2023-04-24T15:33:01;12.60;99.90
21261;DHT22;10788;47.930;9.766;2023-04-24T15:35:27;12.50;99.90
21261;DHT22;10788;47.930;9.766;2023-04-24T15:37:53;12.40;99.90
21261;DHT22;10788;47.930;9.766;2023-04-24T15:40:19;12.40;99.90
21261;DHT22;10788;47.930;9.766;2023-04-24T15:42:44;12.40;99.90
21261;DHT22;10788;47.930;9.766;2023-04-24T15:45:10;12.40;99.90
21261;DHT22;10788;47.930;9.766;2023-04-24T15:47:37;12.40;99.90
21261;DHT22;10788;47.930;9.766;2023-04-24T15:50:03;12.40;99.90
21261;DHT22;10788;47.930;9.766;2023-04-24T15:52:29;12.30;99.90
21261;DHT22;10788;47.930;9.766;2023-04-24T15:54:55;12.30;99.90
21261;DHT22;10788;47.930;9.766;2023-04-24T15:57:21;12.20;99.90